sensor_id;sensor_type;location;lat;lon;timestamp;P1;durP1;ratioP1;P2;durP2;ratioP2
77984;SDS011;67177;47.240;-1.546;2023-06-14T00:00:13;6.88;;;4.40;;
77984;SDS011;67177;47.240;-1.546;2023-06-14T00:02:40;6.70;;;4.20;;
77984;SDS011;67177;47.240;-1.546;2023-06-14T00:05:06;6.25;;;3.78;;
77984;SDS011;67177;47.240;-1.546;2023-06-14T00:07:36;6.15;;;3.50;;
77984;SDS011;67177;47.240;-1.546;2023-06-14T00:10:11;5.87;;;3.20;;
77984;SDS011;67177;47.240;-1.546;2023-06-14T00:12:37;6.80;;;3.55;;
77984;SDS011;67177;47.240;-1.546;2023-06-14T00:15:04;6.57;;;3.78;;
77984;SDS011;67177;47.240;-1.546;2023-06-14T00:17:30;6.03;;;3.53;;
77984;SDS011;67177;47.240;-1.546;2023-06-14T00:19:59;6.63;;;3.97;;
77984;SDS011;67177;47.240;-1.546;2023-06-14T00:22:25;6.75;;;3.45;;
77984;SDS011;67177;47.240;-1.546;2023-06-14T00:24:51;7.55;;;3.88;;
77984;SDS011;67177;47.240;-1.546;2023-06-14T00:27:17;6.70;;;4.10;;
77984;SDS011;67177;47.240;-1.546;2023-06-14T00:29:43;6.70;;;3.70;;
77984;SDS011;67177;47.240;-1.546;2023-06-14T00:32:08;6.22;;;3.70;;
77984;SDS011;67177;47.240;-1.546;2023-06-14T00:34:34;5.93;;;3.30;;
77984;SDS011;67177;47.240;-1.546;2023-06-14T00:37:00;7.25;;;3.67;;
77984;SDS011;67177;47.240;-1.546;2023-06-14T00:39:26;12.43;;;5.90;;
77984;SDS011;67177;47.240;-1.546;2023-06-14T00:41:52;6.72;;;3.97;;
77984;SDS011;67177;47.240;-1.546;2023-06-14T00:44:17;6.20;;;3.38;;
77984;SDS011;67177;47.240;-1.546;2023-06-14T00:46:45;6.13;;;3.83;;
77984;SDS011;67177;47.240;-1.546;2023-06-14T00:49:11;6.20;;;3.72;;
77984;SDS011;67177;47.240;-1.546;2023-06-14T00:51:41;6.93;;;3.70;;
77984;SDS011;67177;47.240;-1.546;2023-06-14T00:54:07;6.70;;;4.03;;
77984;SDS011;67177;47.240;-1.546;2023-06-14T00:56:35;6.80;;;4.05;;
77984;SDS011;67177;47.240;-1.546;2023-06-14T00:59:01;7.05;;;4.15;;
77984;SDS011;67177;47.240;-1.546;2023-06-14T01:01:28;7.55;;;4.18;;
77984;SDS011;67177;47.240;-1.546;2023-06-14T01:03:57;7.10;;;4.00;;
77984;SDS011;67177;47.240;-1.546;2023-06-14T01:09:12;8.05;;;3.83;;
77984;SDS011;67177;47.240;-1.546;2023-06-14T01:12:21;6.32;;;3.60;;
77984;SDS011;67177;47.240;-1.546;2023-06-14T01:14:42;7.32;;;3.85;;
77984;SDS011;67177;47.240;-1.546;2023-06-14T01:17:08;6.15;;;3.60;;
77984;SDS011;67177;47.240;-1.546;2023-06-14T01:19:42;6.17;;;3.60;;
77984;SDS011;67177;47.240;-1.546;2023-06-14T01:22:09;6.50;;;3.72;;
77984;SDS011;67177;47.240;-1.546;2023-06-14T01:24:35;6.18;;;3.80;;
77984;SDS011;67177;47.240;-1.546;2023-06-14T01:27:01;7.40;;;4.13;;
77984;SDS011;67177;47.240;-1.546;2023-06-14T01:29:28;6.20;;;3.70;;
77984;SDS011;67177;47.240;-1.546;2023-06-14T01:31:58;6.30;;;3.60;;
77984;SDS011;67177;47.240;-1.546;2023-06-14T01:34:25;6.25;;;3.65;;
77984;SDS011;67177;47.240;-1.546;2023-06-14T01:36:51;6.15;;;3.60;;
77984;SDS011;67177;47.240;-1.546;2023-06-14T01:39:19;6.87;;;4.00;;
77984;SDS011;67177;47.240;-1.546;2023-06-14T01:41:46;5.93;;;3.40;;
77984;SDS011;67177;47.240;-1.546;2023-06-14T01:44:14;6.53;;;3.60;;
77984;SDS011;67177;47.240;-1.546;2023-06-14T01:46:42;6.32;;;3.55;;
77984;SDS011;67177;47.240;-1.546;2023-06-14T01:49:10;6.75;;;3.55;;
77984;SDS011;67177;47.240;-1.546;2023-06-14T01:51:36;7.00;;;4.10;;
77984;SDS011;67177;47.240;-1.546;2023-06-14T01:54:02;6.20;;;3.78;;
77984;SDS011;67177;47.240;-1.546;2023-06-14T01:56:27;6.40;;;3.17;;
77984;SDS011;67177;47.240;-1.546;2023-06-14T01:58:53;7.07;;;3.65;;
77984;SDS011;67177;47.240;-1.546;2023-06-14T02:01:19;6.50;;;3.60;;
77984;SDS011;67177;47.240;-1.546;2023-06-14T02:03:46;5.93;;;3.30;;
77984;SDS011;67177;47.240;-1.546;2023-06-14T02:06:13;6.38;;;3.78;;
77984;SDS011;67177;47.240;-1.546;2023-06-14T02:08:40;6.60;;;3.97;;
77984;SDS011;67177;47.240;-1.546;2023-06-14T02:11:06;7.10;;;4.17;;
77984;SDS011;67177;47.240;-1.546;2023-06-14T02:13:32;6.22;;;3.50;;
77984;SDS011;67177;47.240;-1.546;2023-06-14T02:15:59;6.53;;;3.60;;
77984;SDS011;67177;47.240;-1.546;2023-06-14T02:18:25;6.53;;;3.20;;
77984;SDS011;67177;47.240;-1.546;2023-06-14T02:20:51;5.68;;;3.17;;
77984;SDS011;67177;47.240;-1.546;2023-06-14T02:23:17;6.30;;;3.80;;
77984;SDS011;67177;47.240;-1.546;2023-06-14T02:25:42;7.07;;;4.15;;
77984;SDS011;67177;47.240;-1.546;2023-06-14T02:28:10;6.60;;;3.70;;
77984;SDS011;67177;47.240;-1.546;2023-06-14T02:30:35;6.82;;;3.80;;
77984;SDS011;67177;47.240;-1.546;2023-06-14T02:33:01;7.32;;;3.97;;
77984;SDS011;67177;47.240;-1.546;2023-06-14T02:35:28;6.18;;;3.30;;
77984;SDS011;67177;47.240;-1.546;2023-06-14T02:37:54;6.70;;;3.80;;
77984;SDS011;67177;47.240;-1.546;2023-06-14T02:40:20;7.05;;;4.00;;
77984;SDS011;67177;47.240;-1.546;2023-06-14T02:42:46;6.68;;;3.85;;
77984;SDS011;67177;47.240;-1.546;2023-06-14T02:45:12;6.38;;;3.60;;
77984;SDS011;67177;47.240;-1.546;2023-06-14T02:47:37;6.30;;;3.40;;
77984;SDS011;67177;47.240;-1.546;2023-06-14T02:50:03;5.95;;;3.10;;
77984;SDS011;67177;47.240;-1.546;2023-06-14T02:52:29;5.73;;;3.10;;
77984;SDS011;67177;47.240;-1.546;2023-06-14T02:54:55;6.60;;;3.17;;
77984;SDS011;67177;47.240;-1.546;2023-06-14T02:57:21;6.30;;;3.33;;
77984;SDS011;67177;47.240;-1.546;2023-06-14T02:59:48;5.80;;;3.00;;
77984;SDS011;67177;47.240;-1.546;2023-06-14T03:02:14;5.38;;;2.70;;
77984;SDS011;67177;47.240;-1.546;2023-06-14T03:04:39;5.70;;;3.10;;
77984;SDS011;67177;47.240;-1.546;2023-06-14T03:07:05;5.53;;;2.70;;
77984;SDS011;67177;47.240;-1.546;2023-06-14T03:09:36;5.30;;;2.90;;
77984;SDS011;67177;47.240;-1.546;2023-06-14T03:12:03;5.88;;;3.35;;
77984;SDS011;67177;47.240;-1.546;2023-06-14T03:14:29;5.53;;;3.00;;
77984;SDS011;67177;47.240;-1.546;2023-06-14T03:16:56;5.73;;;2.57;;
77984;SDS011;67177;47.240;-1.546;2023-06-14T03:19:22;6.00;;;3.33;;
77984;SDS011;67177;47.240;-1.546;2023-06-14T03:21:48;5.70;;;3.00;;
77984;SDS011;67177;47.240;-1.546;2023-06-14T03:24:15;5.05;;;2.70;;
77984;SDS011;67177;47.240;-1.546;2023-06-14T03:26:43;5.65;;;2.90;;
77984;SDS011;67177;47.240;-1.546;2023-06-14T03:29:09;6.37;;;3.00;;
77984;SDS011;67177;47.240;-1.546;2023-06-14T03:31:35;5.10;;;2.70;;
77984;SDS011;67177;47.240;-1.546;2023-06-14T03:34:01;5.90;;;3.10;;
77984;SDS011;67177;47.240;-1.546;2023-06-14T03:36:27;5.65;;;2.90;;
77984;SDS011;67177;47.240;-1.546;2023-06-14T03:38:53;5.67;;;2.87;;
77984;SDS011;67177;47.240;-1.546;2023-06-14T03:41:20;5.95;;;3.30;;
77984;SDS011;67177;47.240;-1.546;2023-06-14T03:43:45;5.70;;;3.08;;
77984;SDS011;67177;47.240;-1.546;2023-06-14T03:46:11;5.25;;;2.80;;
77984;SDS011;67177;47.240;-1.546;2023-06-14T03:48:37;5.90;;;3.10;;
77984;SDS011;67177;47.240;-1.546;2023-06-14T03:51:03;5.93;;;2.60;;
77984;SDS011;67177;47.240;-1.546;2023-06-14T03:53:29;5.93;;;2.78;;
77984;SDS011;67177;47.240;-1.546;2023-06-14T03:55:55;5.97;;;3.10;;
77984;SDS011;67177;47.240;-1.546;2023-06-14T03:58:22;6.60;;;2.93;;
77984;SDS011;67177;47.240;-1.546;2023-06-14T04:00:48;6.07;;;3.17;;
77984;SDS011;67177;47.240;-1.546;2023-06-14T04:03:13;5.82;;;3.00;;
77984;SDS011;67177;47.240;-1.546;2023-06-14T04:05:40;4.83;;;2.40;;
77984;SDS011;67177;47.240;-1.546;2023-06-14T04:08:07;5.20;;;2.47;;
77984;SDS011;67177;47.240;-1.546;2023-06-14T04:10:34;4.90;;;2.30;;
77984;SDS011;67177;47.240;-1.546;2023-06-14T04:13:00;5.63;;;2.73;;
77984;SDS011;67177;47.240;-1.546;2023-06-14T04:15:25;5.45;;;2.90;;
77984;SDS011;67177;47.240;-1.546;2023-06-14T04:17:53;5.38;;;2.70;;
77984;SDS011;67177;47.240;-1.546;2023-06-14T04:20:22;5.28;;;2.67;;
77984;SDS011;67177;47.240;-1.546;2023-06-14T04:22:49;6.90;;;2.90;;
77984;SDS011;67177;47.240;-1.546;2023-06-14T04:25:15;5.85;;;3.00;;
77984;SDS011;67177;47.240;-1.546;2023-06-14T04:27:42;5.32;;;2.88;;
77984;SDS011;67177;47.240;-1.546;2023-06-14T04:30:09;5.80;;;3.00;;
77984;SDS011;67177;47.240;-1.546;2023-06-14T04:32:35;5.40;;;2.83;;
77984;SDS011;67177;47.240;-1.546;2023-06-14T04:35:07;5.25;;;3.00;;
77984;SDS011;67177;47.240;-1.546;2023-06-14T04:37:33;5.32;;;2.63;;
77984;SDS011;67177;47.240;-1.546;2023-06-14T04:39:59;5.20;;;2.42;;
77984;SDS011;67177;47.240;-1.546;2023-06-14T04:42:26;5.30;;;2.60;;
77984;SDS011;67177;47.240;-1.546;2023-06-14T04:44:55;7.72;;;3.25;;
77984;SDS011;67177;47.240;-1.546;2023-06-14T04:47:22;5.90;;;3.20;;
77984;SDS011;67177;47.240;-1.546;2023-06-14T04:49:49;6.07;;;3.10;;
77984;SDS011;67177;47.240;-1.546;2023-06-14T04:52:17;5.93;;;3.10;;
77984;SDS011;67177;47.240;-1.546;2023-06-14T04:54:46;6.10;;;3.17;;
77984;SDS011;67177;47.240;-1.546;2023-06-14T04:57:12;6.45;;;3.53;;
77984;SDS011;67177;47.240;-1.546;2023-06-14T04:59:42;6.03;;;3.10;;
77984;SDS011;67177;47.240;-1.546;2023-06-14T05:02:09;7.07;;;3.60;;
77984;SDS011;67177;47.240;-1.546;2023-06-14T05:04:35;7.15;;;3.80;;
77984;SDS011;67177;47.240;-1.546;2023-06-14T05:07:04;6.50;;;3.67;;
77984;SDS011;67177;47.240;-1.546;2023-06-14T05:09:31;8.13;;;4.80;;
77984;SDS011;67177;47.240;-1.546;2023-06-14T05:11:58;7.25;;;4.20;;
77984;SDS011;67177;47.240;-1.546;2023-06-14T05:14:25;7.03;;;4.05;;
77984;SDS011;67177;47.240;-1.546;2023-06-14T05:16:51;7.80;;;4.82;;
77984;SDS011;67177;47.240;-1.546;2023-06-14T05:19:18;8.70;;;5.10;;
77984;SDS011;67177;47.240;-1.546;2023-06-14T05:21:45;7.90;;;4.15;;
77984;SDS011;67177;47.240;-1.546;2023-06-14T05:24:12;6.72;;;3.88;;
77984;SDS011;67177;47.240;-1.546;2023-06-14T05:26:42;6.07;;;3.70;;
77984;SDS011;67177;47.240;-1.546;2023-06-14T05:29:08;8.37;;;4.30;;
77984;SDS011;67177;47.240;-1.546;2023-06-14T05:31:34;8.90;;;5.30;;
77984;SDS011;67177;47.240;-1.546;2023-06-14T05:34:00;7.20;;;4.40;;
77984;SDS011;67177;47.240;-1.546;2023-06-14T05:36:25;8.18;;;5.03;;
77984;SDS011;67177;47.240;-1.546;2023-06-14T05:38:52;7.78;;;4.25;;
77984;SDS011;67177;47.240;-1.546;2023-06-14T05:41:26;8.10;;;4.57;;
77984;SDS011;67177;47.240;-1.546;2023-06-14T05:43:53;9.05;;;5.60;;
77984;SDS011;67177;47.240;-1.546;2023-06-14T05:46:19;8.68;;;5.18;;
77984;SDS011;67177;47.240;-1.546;2023-06-14T05:48:50;8.50;;;5.03;;
77984;SDS011;67177;47.240;-1.546;2023-06-14T05:51:16;9.00;;;5.43;;
77984;SDS011;67177;47.240;-1.546;2023-06-14T05:53:45;9.90;;;5.80;;
77984;SDS011;67177;47.240;-1.546;2023-06-14T05:56:11;9.05;;;5.40;;
77984;SDS011;67177;47.240;-1.546;2023-06-14T05:58:37;8.02;;;4.90;;
77984;SDS011;67177;47.240;-1.546;2023-06-14T06:01:03;8.10;;;5.18;;
77984;SDS011;67177;47.240;-1.546;2023-06-14T06:03:28;9.07;;;4.90;;
77984;SDS011;67177;47.240;-1.546;2023-06-14T06:05:54;10.10;;;5.70;;
77984;SDS011;67177;47.240;-1.546;2023-06-14T06:08:20;8.35;;;5.22;;
77984;SDS011;67177;47.240;-1.546;2023-06-14T06:10:46;8.20;;;4.82;;
77984;SDS011;67177;47.240;-1.546;2023-06-14T06:13:12;8.77;;;5.77;;
77984;SDS011;67177;47.240;-1.546;2023-06-14T06:15:37;8.32;;;5.50;;
77984;SDS011;67177;47.240;-1.546;2023-06-14T06:18:03;8.13;;;4.60;;
77984;SDS011;67177;47.240;-1.546;2023-06-14T06:20:29;9.02;;;5.40;;
77984;SDS011;67177;47.240;-1.546;2023-06-14T06:22:57;8.07;;;4.80;;
77984;SDS011;67177;47.240;-1.546;2023-06-14T06:25:23;7.85;;;4.57;;
77984;SDS011;67177;47.240;-1.546;2023-06-14T06:27:51;7.53;;;4.38;;
77984;SDS011;67177;47.240;-1.546;2023-06-14T06:30:17;8.80;;;5.47;;
77984;SDS011;67177;47.240;-1.546;2023-06-14T06:32:43;7.80;;;4.85;;
77984;SDS011;67177;47.240;-1.546;2023-06-14T06:35:09;8.17;;;4.87;;
77984;SDS011;67177;47.240;-1.546;2023-06-14T06:37:36;7.70;;;4.55;;
77984;SDS011;67177;47.240;-1.546;2023-06-14T06:40:02;6.95;;;4.00;;
77984;SDS011;67177;47.240;-1.546;2023-06-14T06:42:30;6.73;;;3.87;;
77984;SDS011;67177;47.240;-1.546;2023-06-14T06:44:57;6.38;;;3.80;;
77984;SDS011;67177;47.240;-1.546;2023-06-14T06:47:22;7.20;;;4.03;;
77984;SDS011;67177;47.240;-1.546;2023-06-14T06:49:48;6.83;;;3.80;;
77984;SDS011;67177;47.240;-1.546;2023-06-14T06:52:14;7.60;;;4.10;;
77984;SDS011;67177;47.240;-1.546;2023-06-14T06:54:40;6.73;;;3.90;;
77984;SDS011;67177;47.240;-1.546;2023-06-14T06:57:06;7.07;;;3.67;;
77984;SDS011;67177;47.240;-1.546;2023-06-14T06:59:31;7.03;;;4.00;;
77984;SDS011;67177;47.240;-1.546;2023-06-14T07:01:57;7.00;;;4.10;;
77984;SDS011;67177;47.240;-1.546;2023-06-14T07:04:23;7.82;;;4.68;;
77984;SDS011;67177;47.240;-1.546;2023-06-14T07:06:49;7.80;;;4.43;;
77984;SDS011;67177;47.240;-1.546;2023-06-14T07:09:15;7.22;;;3.92;;
77984;SDS011;67177;47.240;-1.546;2023-06-14T07:11:42;7.80;;;4.20;;
77984;SDS011;67177;47.240;-1.546;2023-06-14T07:14:09;9.20;;;5.47;;
77984;SDS011;67177;47.240;-1.546;2023-06-14T07:16:34;8.37;;;5.30;;
77984;SDS011;67177;47.240;-1.546;2023-06-14T07:19:01;7.95;;;4.63;;
77984;SDS011;67177;47.240;-1.546;2023-06-14T07:21:27;7.18;;;4.45;;
77984;SDS011;67177;47.240;-1.546;2023-06-14T07:23:53;7.93;;;4.97;;
77984;SDS011;67177;47.240;-1.546;2023-06-14T07:26:18;9.97;;;5.60;;
77984;SDS011;67177;47.240;-1.546;2023-06-14T07:28:44;8.13;;;5.15;;
77984;SDS011;67177;47.240;-1.546;2023-06-14T07:31:10;8.85;;;5.95;;
77984;SDS011;67177;47.240;-1.546;2023-06-14T07:33:37;7.20;;;4.50;;
77984;SDS011;67177;47.240;-1.546;2023-06-14T07:36:03;7.57;;;4.82;;
77984;SDS011;67177;47.240;-1.546;2023-06-14T07:38:29;8.63;;;5.07;;
77984;SDS011;67177;47.240;-1.546;2023-06-14T07:40:55;8.43;;;4.03;;
77984;SDS011;67177;47.240;-1.546;2023-06-14T07:43:20;8.23;;;4.78;;
77984;SDS011;67177;47.240;-1.546;2023-06-14T07:45:46;7.13;;;4.53;;
77984;SDS011;67177;47.240;-1.546;2023-06-14T07:48:12;8.25;;;4.80;;
77984;SDS011;67177;47.240;-1.546;2023-06-14T07:50:37;8.30;;;5.37;;
77984;SDS011;67177;47.240;-1.546;2023-06-14T07:53:03;7.37;;;4.90;;
77984;SDS011;67177;47.240;-1.546;2023-06-14T07:55:29;7.55;;;4.72;;
77984;SDS011;67177;47.240;-1.546;2023-06-14T07:57:57;7.55;;;4.50;;
77984;SDS011;67177;47.240;-1.546;2023-06-14T08:00:23;7.40;;;4.50;;
77984;SDS011;67177;47.240;-1.546;2023-06-14T08:02:49;6.93;;;4.20;;
77984;SDS011;67177;47.240;-1.546;2023-06-14T08:05:17;7.78;;;4.88;;
77984;SDS011;67177;47.240;-1.546;2023-06-14T08:07:42;6.80;;;4.10;;
77984;SDS011;67177;47.240;-1.546;2023-06-14T08:10:08;7.03;;;4.50;;
77984;SDS011;67177;47.240;-1.546;2023-06-14T08:12:34;7.32;;;4.53;;
77984;SDS011;67177;47.240;-1.546;2023-06-14T08:15:00;8.80;;;4.70;;
77984;SDS011;67177;47.240;-1.546;2023-06-14T08:17:26;8.60;;;4.72;;
77984;SDS011;67177;47.240;-1.546;2023-06-14T08:19:52;9.48;;;5.65;;
77984;SDS011;67177;47.240;-1.546;2023-06-14T08:22:22;8.15;;;5.32;;
77984;SDS011;67177;47.240;-1.546;2023-06-14T08:24:49;7.40;;;4.90;;
77984;SDS011;67177;47.240;-1.546;2023-06-14T08:27:15;8.13;;;5.53;;
77984;SDS011;67177;47.240;-1.546;2023-06-14T08:29:41;7.60;;;5.10;;
77984;SDS011;67177;47.240;-1.546;2023-06-14T08:32:07;8.45;;;5.55;;
77984;SDS011;67177;47.240;-1.546;2023-06-14T08:34:33;7.43;;;4.72;;
77984;SDS011;67177;47.240;-1.546;2023-06-14T08:36:58;7.18;;;4.65;;
77984;SDS011;67177;47.240;-1.546;2023-06-14T08:39:24;7.40;;;4.70;;
77984;SDS011;67177;47.240;-1.546;2023-06-14T08:41:50;6.97;;;4.65;;
77984;SDS011;67177;47.240;-1.546;2023-06-14T08:44:18;7.00;;;4.22;;
77984;SDS011;67177;47.240;-1.546;2023-06-14T08:46:44;8.55;;;5.15;;
77984;SDS011;67177;47.240;-1.546;2023-06-14T08:49:12;7.20;;;4.90;;
77984;SDS011;67177;47.240;-1.546;2023-06-14T08:51:40;7.22;;;4.75;;
77984;SDS011;67177;47.240;-1.546;2023-06-14T08:54:08;6.93;;;4.00;;
77984;SDS011;67177;47.240;-1.546;2023-06-14T08:56:37;6.85;;;4.25;;
77984;SDS011;67177;47.240;-1.546;2023-06-14T08:59:03;6.93;;;4.40;;
77984;SDS011;67177;47.240;-1.546;2023-06-14T09:01:34;6.93;;;4.18;;
77984;SDS011;67177;47.240;-1.546;2023-06-14T09:04:01;6.85;;;4.35;;
77984;SDS011;67177;47.240;-1.546;2023-06-14T09:06:27;6.63;;;3.80;;
77984;SDS011;67177;47.240;-1.546;2023-06-14T09:08:54;7.07;;;4.40;;
77984;SDS011;67177;47.240;-1.546;2023-06-14T09:11:22;6.70;;;4.25;;
77984;SDS011;67177;47.240;-1.546;2023-06-14T09:13:48;8.07;;;4.80;;
77984;SDS011;67177;47.240;-1.546;2023-06-14T09:16:15;8.20;;;5.47;;
77984;SDS011;67177;47.240;-1.546;2023-06-14T09:18:44;8.68;;;5.60;;
77984;SDS011;67177;47.240;-1.546;2023-06-14T09:21:15;8.35;;;5.80;;
77984;SDS011;67177;47.240;-1.546;2023-06-14T09:23:44;7.78;;;5.45;;
77984;SDS011;67177;47.240;-1.546;2023-06-14T09:26:12;7.57;;;5.40;;
77984;SDS011;67177;47.240;-1.546;2023-06-14T09:28:45;8.23;;;5.17;;
77984;SDS011;67177;47.240;-1.546;2023-06-14T09:31:15;7.70;;;5.20;;
77984;SDS011;67177;47.240;-1.546;2023-06-14T09:33:43;8.38;;;4.70;;
77984;SDS011;67177;47.240;-1.546;2023-06-14T09:36:16;6.97;;;4.50;;
77984;SDS011;67177;47.240;-1.546;2023-06-14T09:39:00;7.55;;;4.63;;
77984;SDS011;67177;47.240;-1.546;2023-06-14T09:41:31;6.47;;;3.90;;
77984;SDS011;67177;47.240;-1.546;2023-06-14T09:43:58;6.50;;;4.20;;
77984;SDS011;67177;47.240;-1.546;2023-06-14T09:46:26;6.13;;;4.18;;
77984;SDS011;67177;47.240;-1.546;2023-06-14T09:48:52;7.53;;;4.68;;
77984;SDS011;67177;47.240;-1.546;2023-06-14T09:51:18;7.50;;;4.90;;
77984;SDS011;67177;47.240;-1.546;2023-06-14T09:53:46;7.80;;;5.27;;
77984;SDS011;67177;47.240;-1.546;2023-06-14T09:56:36;7.57;;;5.10;;
77984;SDS011;67177;47.240;-1.546;2023-06-14T09:59:03;7.28;;;5.05;;
77984;SDS011;67177;47.240;-1.546;2023-06-14T10:01:30;7.05;;;4.63;;
77984;SDS011;67177;47.240;-1.546;2023-06-14T10:04:02;7.90;;;4.90;;
77984;SDS011;67177;47.240;-1.546;2023-06-14T10:06:29;6.70;;;4.40;;
77984;SDS011;67177;47.240;-1.546;2023-06-14T10:09:02;7.75;;;4.90;;
77984;SDS011;67177;47.240;-1.546;2023-06-14T10:11:32;7.13;;;4.70;;
77984;SDS011;67177;47.240;-1.546;2023-06-14T10:13:58;6.85;;;4.72;;
77984;SDS011;67177;47.240;-1.546;2023-06-14T10:16:32;7.20;;;4.80;;
77984;SDS011;67177;47.240;-1.546;2023-06-14T10:22:05;6.97;;;4.78;;
77984;SDS011;67177;47.240;-1.546;2023-06-14T10:24:42;6.93;;;4.53;;
77984;SDS011;67177;47.240;-1.546;2023-06-14T10:27:09;6.75;;;4.40;;
77984;SDS011;67177;47.240;-1.546;2023-06-14T10:32:18;6.67;;;4.30;;
77984;SDS011;67177;47.240;-1.546;2023-06-14T10:34:45;6.55;;;4.05;;
77984;SDS011;67177;47.240;-1.546;2023-06-14T10:37:22;7.45;;;4.68;;
77984;SDS011;67177;47.240;-1.546;2023-06-14T10:39:49;7.13;;;4.55;;
77984;SDS011;67177;47.240;-1.546;2023-06-14T10:42:15;7.05;;;4.53;;
77984;SDS011;67177;47.240;-1.546;2023-06-14T10:47:24;8.07;;;5.38;;
77984;SDS011;67177;47.240;-1.546;2023-06-14T10:49:54;7.60;;;5.13;;
77984;SDS011;67177;47.240;-1.546;2023-06-14T10:52:23;7.80;;;4.53;;
77984;SDS011;67177;47.240;-1.546;2023-06-14T10:55:02;6.57;;;4.50;;
77984;SDS011;67177;47.240;-1.546;2023-06-14T10:57:40;7.82;;;4.50;;
77984;SDS011;67177;47.240;-1.546;2023-06-14T11:00:09;7.00;;;4.20;;
77984;SDS011;67177;47.240;-1.546;2023-06-14T11:05:30;7.83;;;5.13;;
77984;SDS011;67177;47.240;-1.546;2023-06-14T11:08:27;7.93;;;5.25;;
77984;SDS011;67177;47.240;-1.546;2023-06-14T11:11:22;7.57;;;5.43;;
77984;SDS011;67177;47.240;-1.546;2023-06-14T11:13:50;8.70;;;5.07;;
77984;SDS011;67177;47.240;-1.546;2023-06-14T11:16:17;8.15;;;4.50;;
77984;SDS011;67177;47.240;-1.546;2023-06-14T11:18:45;7.23;;;4.50;;
77984;SDS011;67177;47.240;-1.546;2023-06-14T11:21:11;6.20;;;3.72;;
77984;SDS011;67177;47.240;-1.546;2023-06-14T11:23:41;6.28;;;3.80;;
77984;SDS011;67177;47.240;-1.546;2023-06-14T11:26:07;6.57;;;3.80;;
77984;SDS011;67177;47.240;-1.546;2023-06-14T11:28:39;7.45;;;4.72;;
77984;SDS011;67177;47.240;-1.546;2023-06-14T11:31:06;7.63;;;5.22;;
77984;SDS011;67177;47.240;-1.546;2023-06-14T11:33:32;7.23;;;4.40;;
77984;SDS011;67177;47.240;-1.546;2023-06-14T11:36:01;6.78;;;4.28;;
77984;SDS011;67177;47.240;-1.546;2023-06-14T11:38:27;6.40;;;4.03;;
77984;SDS011;67177;47.240;-1.546;2023-06-14T11:40:53;7.20;;;4.00;;
77984;SDS011;67177;47.240;-1.546;2023-06-14T11:43:23;6.90;;;4.05;;
77984;SDS011;67177;47.240;-1.546;2023-06-14T11:45:51;6.53;;;3.85;;
77984;SDS011;67177;47.240;-1.546;2023-06-14T11:48:18;5.85;;;3.55;;
77984;SDS011;67177;47.240;-1.546;2023-06-14T11:50:44;6.38;;;4.10;;
77984;SDS011;67177;47.240;-1.546;2023-06-14T11:53:09;6.57;;;4.10;;
77984;SDS011;67177;47.240;-1.546;2023-06-14T11:55:36;5.97;;;3.40;;
77984;SDS011;67177;47.240;-1.546;2023-06-14T11:58:03;6.50;;;4.00;;
77984;SDS011;67177;47.240;-1.546;2023-06-14T12:00:29;6.78;;;3.97;;
77984;SDS011;67177;47.240;-1.546;2023-06-14T12:02:56;6.63;;;4.20;;
77984;SDS011;67177;47.240;-1.546;2023-06-14T12:05:22;6.88;;;4.38;;
77984;SDS011;67177;47.240;-1.546;2023-06-14T12:07:48;6.30;;;4.13;;
77984;SDS011;67177;47.240;-1.546;2023-06-14T12:10:15;8.63;;;4.45;;
77984;SDS011;67177;47.240;-1.546;2023-06-14T12:12:42;7.18;;;4.47;;
77984;SDS011;67177;47.240;-1.546;2023-06-14T12:15:08;7.10;;;4.65;;
77984;SDS011;67177;47.240;-1.546;2023-06-14T12:17:37;6.90;;;4.53;;
77984;SDS011;67177;47.240;-1.546;2023-06-14T12:20:10;7.70;;;3.92;;
77984;SDS011;67177;47.240;-1.546;2023-06-14T12:22:47;6.85;;;4.20;;
77984;SDS011;67177;47.240;-1.546;2023-06-14T12:27:56;6.43;;;3.92;;
77984;SDS011;67177;47.240;-1.546;2023-06-14T12:30:23;7.13;;;4.15;;
77984;SDS011;67177;47.240;-1.546;2023-06-14T12:32:48;6.57;;;4.10;;
77984;SDS011;67177;47.240;-1.546;2023-06-14T12:35:16;6.78;;;4.15;;
77984;SDS011;67177;47.240;-1.546;2023-06-14T12:37:46;6.63;;;3.83;;
77984;SDS011;67177;47.240;-1.546;2023-06-14T12:40:12;5.90;;;3.70;;
77984;SDS011;67177;47.240;-1.546;2023-06-14T12:42:38;5.30;;;3.17;;
77984;SDS011;67177;47.240;-1.546;2023-06-14T12:45:04;5.82;;;3.50;;
77984;SDS011;67177;47.240;-1.546;2023-06-14T12:47:30;6.33;;;4.03;;
77984;SDS011;67177;47.240;-1.546;2023-06-14T12:49:55;7.00;;;4.10;;
77984;SDS011;67177;47.240;-1.546;2023-06-14T12:52:21;6.63;;;4.27;;
77984;SDS011;67177;47.240;-1.546;2023-06-14T12:54:47;6.43;;;4.30;;
77984;SDS011;67177;47.240;-1.546;2023-06-14T12:57:12;6.50;;;3.90;;
77984;SDS011;67177;47.240;-1.546;2023-06-14T12:59:38;6.90;;;4.20;;
77984;SDS011;67177;47.240;-1.546;2023-06-14T13:02:13;6.78;;;3.80;;
77984;SDS011;67177;47.240;-1.546;2023-06-14T13:04:41;5.68;;;3.40;;
77984;SDS011;67177;47.240;-1.546;2023-06-14T13:07:07;6.20;;;3.90;;
77984;SDS011;67177;47.240;-1.546;2023-06-14T13:09:32;6.05;;;3.90;;
77984;SDS011;67177;47.240;-1.546;2023-06-14T13:11:58;6.10;;;3.67;;
77984;SDS011;67177;47.240;-1.546;2023-06-14T13:14:24;5.57;;;3.10;;
77984;SDS011;67177;47.240;-1.546;2023-06-14T13:16:49;6.30;;;4.00;;
77984;SDS011;67177;47.240;-1.546;2023-06-14T13:19:15;5.82;;;3.58;;
77984;SDS011;67177;47.240;-1.546;2023-06-14T13:21:41;7.30;;;4.20;;
77984;SDS011;67177;47.240;-1.546;2023-06-14T13:24:07;6.53;;;4.00;;
77984;SDS011;67177;47.240;-1.546;2023-06-14T13:26:33;6.53;;;4.13;;
77984;SDS011;67177;47.240;-1.546;2023-06-14T13:28:59;6.82;;;4.13;;
77984;SDS011;67177;47.240;-1.546;2023-06-14T13:31:25;5.75;;;3.55;;
77984;SDS011;67177;47.240;-1.546;2023-06-14T13:33:50;5.80;;;3.50;;
77984;SDS011;67177;47.240;-1.546;2023-06-14T13:36:16;6.53;;;3.63;;
77984;SDS011;67177;47.240;-1.546;2023-06-14T13:38:42;7.30;;;4.82;;
77984;SDS011;67177;47.240;-1.546;2023-06-14T13:41:08;7.43;;;5.20;;
77984;SDS011;67177;47.240;-1.546;2023-06-14T13:43:33;7.95;;;4.78;;
77984;SDS011;67177;47.240;-1.546;2023-06-14T13:45:59;6.90;;;4.60;;
77984;SDS011;67177;47.240;-1.546;2023-06-14T13:48:25;6.13;;;3.95;;
77984;SDS011;67177;47.240;-1.546;2023-06-14T13:50:51;5.97;;;3.77;;
77984;SDS011;67177;47.240;-1.546;2023-06-14T13:53:17;5.70;;;3.42;;
77984;SDS011;67177;47.240;-1.546;2023-06-14T13:55:43;5.20;;;3.17;;
77984;SDS011;67177;47.240;-1.546;2023-06-14T13:58:08;5.23;;;3.20;;
77984;SDS011;67177;47.240;-1.546;2023-06-14T14:00:34;5.70;;;3.33;;
77984;SDS011;67177;47.240;-1.546;2023-06-14T14:03:02;5.40;;;3.33;;
77984;SDS011;67177;47.240;-1.546;2023-06-14T14:05:28;5.53;;;3.15;;
77984;SDS011;67177;47.240;-1.546;2023-06-14T14:07:55;6.32;;;4.30;;
77984;SDS011;67177;47.240;-1.546;2023-06-14T14:10:22;6.25;;;3.88;;
77984;SDS011;67177;47.240;-1.546;2023-06-14T14:12:50;6.50;;;4.18;;
77984;SDS011;67177;47.240;-1.546;2023-06-14T14:15:16;6.07;;;4.30;;
77984;SDS011;67177;47.240;-1.546;2023-06-14T14:17:42;6.60;;;4.10;;
77984;SDS011;67177;47.240;-1.546;2023-06-14T14:20:08;8.63;;;5.07;;
77984;SDS011;67177;47.240;-1.546;2023-06-14T14:22:34;7.70;;;5.22;;
77984;SDS011;67177;47.240;-1.546;2023-06-14T14:25:00;6.80;;;4.60;;
77984;SDS011;67177;47.240;-1.546;2023-06-14T14:27:25;6.67;;;4.67;;
77984;SDS011;67177;47.240;-1.546;2023-06-14T14:29:51;6.53;;;4.80;;
77984;SDS011;67177;47.240;-1.546;2023-06-14T14:32:17;6.27;;;4.13;;
77984;SDS011;67177;47.240;-1.546;2023-06-14T14:34:42;6.43;;;3.80;;
77984;SDS011;67177;47.240;-1.546;2023-06-14T14:37:08;5.78;;;3.60;;
77984;SDS011;67177;47.240;-1.546;2023-06-14T14:39:36;6.50;;;3.73;;
77984;SDS011;67177;47.240;-1.546;2023-06-14T14:42:02;5.63;;;3.45;;
77984;SDS011;67177;47.240;-1.546;2023-06-14T14:44:28;5.70;;;3.13;;
77984;SDS011;67177;47.240;-1.546;2023-06-14T14:46:53;5.83;;;3.40;;
77984;SDS011;67177;47.240;-1.546;2023-06-14T14:49:19;6.10;;;3.60;;